Addison, Ohio
Current Conditions -  °F | °C
As of 11:35 AM on Thursday 23 Oct 2014 (Local Time) from K3I2 Reporting Station
Clear Clear  
Wind Chill: 15°   Ceiling: Unl
Heat Index: 15°   Visibility: 10mi
Dew Point:   Wind: 3mph
Humidity: 59%   Direction: 360°N
Pressure: 30.24"   Gusts: NA
Location:  38.7997°N, 82.2553°W
Report Text: K3I2 231535Z AUTO 36003KT 10SM CLR 15/07 A3024 RMK AO2
Loading
Personal Weather Stations






























Interactive Weather Map
Tropical Storm Tracking
New forecast layout! Learn more

10-Day Weather Forecast

Advertisements
Track Severe Weather on mobile